Etusivu
METAR-TAF:

METAR-TAF

Lentoasemat :

Dillingham, Alaska, Yhdysvallat

Leveyspiiri: 59-03N, Pituuspiiri: 158-31W, korkeus merenpinnasta: 26 m

Tämänhetkinen sää

Tämä raportti tehtiin 43 minuuttia sitten, kello 04.56 UTC
tyyntä
Lämpötila 14°C
Kosteus 38%
Ilmanpaine 1010 hPa
Näkyvyys: 16.1 km
selkeää

METAR: PADL 030456Z 00000KT 10SM CLR 14/00 A2983 RMK AO2 SLP103 T01390000

Aika: 21:39 (05:39 UTC)

Sääennuste

Tämä raportti tehtiin 6 tuntia ja 17 minuuttia sitten, kello 23.22 UTC
Ennuste voimassa 03. päivästä klo 00 UTC - 03. päivään klo 24 UTC
Tuuli 10 kn etelästä
Näkyvyys: 10 km
Hajanaisia pilviä 20000 ft:n korkeudessa
From 03. päivästä klo 1500 UTC
Tuuli 11 kn idästä/kaakosta puuskistuen 20 kn:hen
Näkyvyys: 10 km
Pilvistä 2500 ft:n korkeudessa
heikkoja vesikuuroja

TAF: PADL 022322Z 0300/0324 18010KT P6SM SCT200 FM031500 11011G20KT P6SM -SHRA OVC025

Säähavainnot ja -ennusteet yli 4000 lentoasemalta (METAR- ja TAF-raportit).

Käytössä olevat sääasemat on merkitty karttaan keltaisilla ja punaisilla pisteillä.

Aseta hiiri pisteen päälle nähdäksesi sääaseman nimen.

Klikkaa sitten nähdäksesi säähavainnot ja -ennusteet.

Kartan vaihtaminen: klikkaa mustalla rastilla varustettuja vihreitä pisteitä, niin voit zoomata sisään; viivalla varustettua vihreää pistettä, niin voit zoomata ulos tai vihreitä nuolia, niin pääset viereisille kartoille.


METAR-TAF: